Airfield :
LOGIN :

Register | Disclaimer

   EN    FR    IT 

 










Legend :    VFR   Marginal VFR   IFR   Intensive IFR   Very Intensive IFR
Visi :
Ceiling :
>= 8 km
>= 3000ft
5 to 8 km
1000 to 3000 ft
1500m to 5 km
500 to 1000 ft
800 to 1500m
200 to 500 ft
< 800m
< 200 ft
Symbols :   Thunderstorms  Fog  Heavy snow  Heavy precipitations  Wind > 20 kt
SIGMETs :     Misc.  Thunderstorms  Icing  Turbulence  Mountain Waves  Volcanic Ashes







- Airport Elevation : 299 ft
- IATA code : EDM
- Download approach charts


LFRI - La Roche Sur Yon - Les Ajoncs

CURRENT METAR :
  • 211200Z AUTO 12008KT 090V160 CAVOK 07/M01 Q1011 NOSIG

EXPIRED METARs :
  • 211130Z AUTO 14010KT CAVOK 06/M01 Q1011 NOSIG
  • 211100Z AUTO 14009KT CAVOK 06/M00 Q1011 NOSIG
  • 211030Z AUTO 13008KT 100V160 CAVOK 05/00 Q1010 NOSIG
  • 211000Z AUTO 13007KT CAVOK 04/00 Q1010 NOSIG
  • 210930Z AUTO 13008KT CAVOK 03/M00 Q1010 NOSIG

TAF TAF LFRI
Valid from the 21 at 12:00 until the 22 at 12:00 UTC


211100Z 2112/2212 14008KT CAVOK
BECMG 2114/2116 07010KT
BECMG 2200/2202 4000 BR
TEMPO 2203/2207 2000 BKN003
TEMPO 2207/2212 6000 NSW
PROB30
TEMPO 2207/2211 3000 -SHRA SCT010 SCT026TCU
No reported NOTAMs for that airfield.



MET'MAP, your aeronautical weather chart ! - Copyright ORBIFLY December 2007 - Disclaimer

ORBIFLY MET'MAP TEAM :

Programming & Development : Alexandra Zaïnal
Concept & Development : Baudouin d'Aumeries
Co-Development & Prog : Marc-Olivier Méhu
Technical & hardware support : Manuel Goepfert

Contact : metmap@orbifly.com




SOURCES & CREDITS :

   NOAA